sensor_id;sensor_type;location;lat;lon;timestamp;pressure;altitude;pressure_sealevel;temperature;humidity
8075;BME280;4080;42.676;23.372;2023-07-16T10:15:32;95404.09;;;37.08;59.55
8075;BME280;4080;42.676;23.372;2023-07-16T10:17:59;95397.66;;;37.15;59.00
8075;BME280;4080;42.676;23.372;2023-07-16T10:20:30;95398.44;;;37.15;59.40
8075;BME280;4080;42.676;23.372;2023-07-16T10:22:57;95396.53;;;37.12;58.43
8075;BME280;4080;42.676;23.372;2023-07-16T10:25:26;95372.91;;;36.98;58.07
8075;BME280;4080;42.676;23.372;2023-07-16T10:27:55;95392.41;;;37.04;60.53
8075;BME280;4080;42.676;23.372;2023-07-16T10:30:22;95394.22;;;36.94;59.04
8075;BME280;4080;42.676;23.372;2023-07-16T10:32:51;95382.56;;;36.70;58.38
8075;BME280;4080;42.676;23.372;2023-07-16T10:35:19;95363.97;;;36.42;60.18
8075;BME280;4080;42.676;23.372;2023-07-16T10:37:46;95389.59;;;36.55;60.81
8075;BME280;4080;42.676;23.372;2023-07-16T10:40:13;95377.16;;;36.51;60.15
8075;BME280;4080;42.676;23.372;2023-07-16T10:42:41;95368.94;;;36.31;59.18
8075;BME280;4080;42.676;23.372;2023-07-16T10:45:09;95382.97;;;35.97;61.27
8075;BME280;4080;42.676;23.372;2023-07-16T10:47:37;95350.19;;;35.90;62.02
8075;BME280;4080;42.676;23.372;2023-07-16T10:50:07;95379.84;;;36.34;60.52
8075;BME280;4080;42.676;23.372;2023-07-16T10:52:34;95384.63;;;36.66;60.31
8075;BME280;4080;42.676;23.372;2023-07-16T10:55:01;95377.53;;;36.85;58.21
8075;BME280;4080;42.676;23.372;2023-07-16T10:57:28;95380.63;;;36.87;59.03
8075;BME280;4080;42.676;23.372;2023-07-16T10:59:57;95377.13;;;36.87;57.35
8075;BME280;4080;42.676;23.372;2023-07-16T11:02:26;95354.22;;;36.57;58.16
8075;BME280;4080;42.676;23.372;2023-07-16T11:04:53;95377.91;;;36.67;56.68
8075;BME280;4080;42.676;23.372;2023-07-16T11:07:21;95368.31;;;36.59;57.69
8075;BME280;4080;42.676;23.372;2023-07-16T11:09:49;95363.50;;;36.27;58.64
8075;BME280;4080;42.676;23.372;2023-07-16T11:12:17;95362.91;;;36.00;58.43
8075;BME280;4080;42.676;23.372;2023-07-16T11:14:45;95357.28;;;35.87;58.38
8075;BME280;4080;42.676;23.372;2023-07-16T11:17:13;95358.25;;;35.97;56.76
8075;BME280;4080;42.676;23.372;2023-07-16T11:19:44;95352.06;;;36.13;56.63
8075;BME280;4080;42.676;23.372;2023-07-16T11:22:11;95352.31;;;36.18;54.49
8075;BME280;4080;42.676;23.372;2023-07-16T11:24:40;95356.88;;;36.25;55.99
8075;BME280;4080;42.676;23.372;2023-07-16T11:27:13;95346.06;;;36.18;56.68
8075;BME280;4080;42.676;23.372;2023-07-16T11:29:44;95318.63;;;35.98;57.25
8075;BME280;4080;42.676;23.372;2023-07-16T11:32:11;95323.03;;;36.12;56.44
8075;BME280;4080;42.676;23.372;2023-07-16T11:34:38;95345.34;;;36.33;56.28
8075;BME280;4080;42.676;23.372;2023-07-16T11:37:17;95349.97;;;36.36;57.14
8075;BME280;4080;42.676;23.372;2023-07-16T11:39:48;95339.94;;;36.30;56.61
8075;BME280;4080;42.676;23.372;2023-07-16T11:42:19;95335.13;;;36.34;56.93
8075;BME280;4080;42.676;23.372;2023-07-16T11:44:49;95339.34;;;36.38;58.08
8075;BME280;4080;42.676;23.372;2023-07-16T11:47:16;95345.50;;;36.43;56.77
8075;BME280;4080;42.676;23.372;2023-07-16T11:49:43;95343.78;;;36.32;56.07
8075;BME280;4080;42.676;23.372;2023-07-16T11:52:10;95328.84;;;35.97;54.09
8075;BME280;4080;42.676;23.372;2023-07-16T11:54:36;95339.25;;;35.66;55.32
8075;BME280;4080;42.676;23.372;2023-07-16T11:57:05;95311.22;;;35.12;57.74
8075;BME280;4080;42.676;23.372;2023-07-16T11:59:32;95344.06;;;35.39;56.82
8075;BME280;4080;42.676;23.372;2023-07-16T12:01:59;95335.16;;;35.55;55.19
8075;BME280;4080;42.676;23.372;2023-07-16T12:04:26;95341.44;;;35.55;54.74
8075;BME280;4080;42.676;23.372;2023-07-16T12:06:53;95338.97;;;35.61;54.50
8075;BME280;4080;42.676;23.372;2023-07-16T12:09:19;95327.53;;;35.42;54.08
8075;BME280;4080;42.676;23.372;2023-07-16T12:11:46;95328.03;;;35.37;52.87
8075;BME280;4080;42.676;23.372;2023-07-16T12:14:14;95318.97;;;35.40;53.24
8075;BME280;4080;42.676;23.372;2023-07-16T12:16:41;95330.94;;;35.70;52.76
8075;BME280;4080;42.676;23.372;2023-07-16T12:19:08;95326.34;;;35.43;51.99
8075;BME280;4080;42.676;23.372;2023-07-16T12:21:36;95323.41;;;35.34;52.47
8075;BME280;4080;42.676;23.372;2023-07-16T12:24:03;95324.97;;;35.55;52.42
8075;BME280;4080;42.676;23.372;2023-07-16T12:26:31;95293.38;;;35.67;51.93
8075;BME280;4080;42.676;23.372;2023-07-16T12:28:57;95312.28;;;35.81;51.92
8075;BME280;4080;42.676;23.372;2023-07-16T12:31:25;95319.38;;;35.82;50.97
8075;BME280;4080;42.676;23.372;2023-07-16T12:33:52;95319.56;;;35.91;50.66
8075;BME280;4080;42.676;23.372;2023-07-16T12:36:19;95315.09;;;35.97;49.25
8075;BME280;4080;42.676;23.372;2023-07-16T12:38:46;95311.28;;;36.11;50.28
8075;BME280;4080;42.676;23.372;2023-07-16T12:41:12;95297.91;;;36.13;50.90
8075;BME280;4080;42.676;23.372;2023-07-16T12:43:40;95313.72;;;36.25;50.62
8075;BME280;4080;42.676;23.372;2023-07-16T12:46:07;95300.41;;;36.24;49.81
8075;BME280;4080;42.676;23.372;2023-07-16T12:48:35;95302.56;;;36.16;48.43
8075;BME280;4080;42.676;23.372;2023-07-16T12:51:02;95307.56;;;36.01;51.33
8075;BME280;4080;42.676;23.372;2023-07-16T12:53:29;95305.22;;;35.80;49.41
8075;BME280;4080;42.676;23.372;2023-07-16T12:55:56;95263.09;;;35.51;49.26
8075;BME280;4080;42.676;23.372;2023-07-16T12:58:22;95293.97;;;35.74;48.92
8075;BME280;4080;42.676;23.372;2023-07-16T13:00:49;95292.53;;;35.70;48.06
8075;BME280;4080;42.676;23.372;2023-07-16T13:03:16;95296.59;;;35.62;47.83
8075;BME280;4080;42.676;23.372;2023-07-16T13:05:44;95264.38;;;35.26;47.98
8075;BME280;4080;42.676;23.372;2023-07-16T13:08:12;95288.56;;;35.31;47.03
8075;BME280;4080;42.676;23.372;2023-07-16T13:10:39;95296.19;;;35.20;46.89
8075;BME280;4080;42.676;23.372;2023-07-16T13:13:06;95292.09;;;35.08;48.10
8075;BME280;4080;42.676;23.372;2023-07-16T13:15:33;95285.00;;;35.11;48.16
8075;BME280;4080;42.676;23.372;2023-07-16T13:18:00;95276.00;;;35.10;47.79
8075;BME280;4080;42.676;23.372;2023-07-16T13:20:27;95282.59;;;35.36;47.89
8075;BME280;4080;42.676;23.372;2023-07-16T13:22:56;95261.72;;;35.42;46.50
8075;BME280;4080;42.676;23.372;2023-07-16T13:25:23;95281.53;;;35.70;46.08
8075;BME280;4080;42.676;23.372;2023-07-16T13:27:50;95283.78;;;35.95;45.25
8075;BME280;4080;42.676;23.372;2023-07-16T13:30:18;95281.50;;;36.09;43.88
8075;BME280;4080;42.676;23.372;2023-07-16T13:32:45;95282.81;;;36.21;44.76
8075;BME280;4080;42.676;23.372;2023-07-16T13:35:14;95274.91;;;36.23;45.23
8075;BME280;4080;42.676;23.372;2023-07-16T13:37:40;95280.66;;;36.13;44.38
8075;BME280;4080;42.676;23.372;2023-07-16T13:40:09;95281.50;;;36.09;44.48
8075;BME280;4080;42.676;23.372;2023-07-16T13:42:36;95278.31;;;36.11;44.05
8075;BME280;4080;42.676;23.372;2023-07-16T13:45:03;95277.53;;;36.11;42.90
8075;BME280;4080;42.676;23.372;2023-07-16T13:47:30;95272.03;;;35.94;44.34
8075;BME280;4080;42.676;23.372;2023-07-16T13:49:57;95274.59;;;35.85;46.14
8075;BME280;4080;42.676;23.372;2023-07-16T13:52:24;95253.22;;;35.57;47.02
8075;BME280;4080;42.676;23.372;2023-07-16T13:54:51;95263.53;;;35.49;45.81
8075;BME280;4080;42.676;23.372;2023-07-16T13:57:19;95260.78;;;35.49;47.73
8075;BME280;4080;42.676;23.372;2023-07-16T13:59:45;95253.69;;;35.32;45.94
8075;BME280;4080;42.676;23.372;2023-07-16T14:02:12;95264.09;;;35.40;47.65
8075;BME280;4080;42.676;23.372;2023-07-16T14:04:39;95259.81;;;35.39;46.18
8075;BME280;4080;42.676;23.372;2023-07-16T14:07:05;95249.47;;;35.47;46.70
8075;BME280;4080;42.676;23.372;2023-07-16T14:09:32;95263.53;;;35.49;46.90
8075;BME280;4080;42.676;23.372;2023-07-16T14:11:59;95257.00;;;35.43;46.51
8075;BME280;4080;42.676;23.372;2023-07-16T14:14:27;95261.78;;;35.39;46.40
8075;BME280;4080;42.676;23.372;2023-07-16T14:16:54;95260.53;;;35.43;45.65
8075;BME280;4080;42.676;23.372;2023-07-16T14:19:21;95256.47;;;35.52;45.67
8075;BME280;4080;42.676;23.372;2023-07-16T14:21:47;95254.25;;;35.63;44.35
8075;BME280;4080;42.676;23.372;2023-07-16T14:24:14;95254.94;;;35.67;43.30
8075;BME280;4080;42.676;23.372;2023-07-16T14:26:40;95253.31;;;35.69;44.05
8075;BME280;4080;42.676;23.372;2023-07-16T14:29:07;95251.09;;;35.64;43.28
8075;BME280;4080;42.676;23.372;2023-07-16T14:31:35;95257.78;;;35.63;42.95
8075;BME280;4080;42.676;23.372;2023-07-16T14:34:02;95259.91;;;35.56;43.20
8075;BME280;4080;42.676;23.372;2023-07-16T14:36:29;95255.19;;;35.56;43.08
8075;BME280;4080;42.676;23.372;2023-07-16T14:38:55;95255.09;;;35.60;45.65
8075;BME280;4080;42.676;23.372;2023-07-16T14:41:22;95249.78;;;35.53;45.76
8075;BME280;4080;42.676;23.372;2023-07-16T14:43:49;95252.63;;;35.45;44.70
8075;BME280;4080;42.676;23.372;2023-07-16T14:46:15;95252.44;;;35.36;45.69
8075;BME280;4080;42.676;23.372;2023-07-16T14:48:44;95227.78;;;35.13;45.13
8075;BME280;4080;42.676;23.372;2023-07-16T14:51:11;95259.66;;;35.27;45.39
8075;BME280;4080;42.676;23.372;2023-07-16T14:53:38;95259.00;;;35.19;46.31
8075;BME280;4080;42.676;23.372;2023-07-16T14:56:05;95248.03;;;35.19;46.44
8075;BME280;4080;42.676;23.372;2023-07-16T14:58:32;95223.28;;;35.03;47.17
8075;BME280;4080;42.676;23.372;2023-07-16T15:01:00;95255.44;;;35.22;48.27
8075;BME280;4080;42.676;23.372;2023-07-16T15:03:29;95250.50;;;35.13;47.91
8075;BME280;4080;42.676;23.372;2023-07-16T15:05:57;95254.84;;;35.11;48.02
8075;BME280;4080;42.676;23.372;2023-07-16T15:08:24;95262.31;;;35.10;49.17
8075;BME280;4080;42.676;23.372;2023-07-16T15:10:52;95262.38;;;35.07;51.62
8075;BME280;4080;42.676;23.372;2023-07-16T15:13:21;95238.25;;;34.98;52.51
8075;BME280;4080;42.676;23.372;2023-07-16T15:15:50;95253.09;;;35.01;52.05
8075;BME280;4080;42.676;23.372;2023-07-16T15:18:18;95251.53;;;35.00;53.22
8075;BME280;4080;42.676;23.372;2023-07-16T15:20:45;95261.53;;;34.90;53.59
8075;BME280;4080;42.676;23.372;2023-07-16T15:23:13;95224.09;;;34.56;54.68
8075;BME280;4080;42.676;23.372;2023-07-16T15:25:41;95256.16;;;34.60;55.49
8075;BME280;4080;42.676;23.372;2023-07-16T15:28:09;95244.16;;;34.23;57.25
8075;BME280;4080;42.676;23.372;2023-07-16T15:30:36;95254.88;;;34.14;59.80
8075;BME280;4080;42.676;23.372;2023-07-16T15:33:02;95252.00;;;33.94;63.12
8075;BME280;4080;42.676;23.372;2023-07-16T15:35:29;95263.13;;;33.83;65.32
8075;BME280;4080;42.676;23.372;2023-07-16T15:37:56;95246.28;;;33.54;67.60
8075;BME280;4080;42.676;23.372;2023-07-16T15:40:26;95259.94;;;33.54;68.13
8075;BME280;4080;42.676;23.372;2023-07-16T15:42:53;95256.13;;;33.48;69.82
8075;BME280;4080;42.676;23.372;2023-07-16T15:45:20;95261.72;;;33.38;71.11
8075;BME280;4080;42.676;23.372;2023-07-16T15:47:47;95257.09;;;33.31;72.60
8075;BME280;4080;42.676;23.372;2023-07-16T15:50:16;95255.66;;;33.19;72.48
8075;BME280;4080;42.676;23.372;2023-07-16T15:52:43;95259.97;;;33.17;73.26
8075;BME280;4080;42.676;23.372;2023-07-16T15:55:10;95254.22;;;33.08;76.50
8075;BME280;4080;42.676;23.372;2023-07-16T15:57:38;95258.94;;;33.03;77.80
8075;BME280;4080;42.676;23.372;2023-07-16T16:00:07;95260.88;;;33.07;77.30
8075;BME280;4080;42.676;23.372;2023-07-16T16:02:39;95269.03;;;33.10;77.37
8075;BME280;4080;42.676;23.372;2023-07-16T16:05:07;95270.59;;;33.11;77.69
8075;BME280;4080;42.676;23.372;2023-07-16T16:07:33;95267.47;;;33.09;78.04
8075;BME280;4080;42.676;23.372;2023-07-16T16:10:00;95270.63;;;33.08;79.25
8075;BME280;4080;42.676;23.372;2023-07-16T16:12:27;95276.47;;;33.06;80.00
8075;BME280;4080;42.676;23.372;2023-07-16T16:14:55;95282.34;;;33.04;79.92
8075;BME280;4080;42.676;23.372;2023-07-16T16:17:21;95285.16;;;32.97;79.64
8075;BME280;4080;42.676;23.372;2023-07-16T16:19:48;95278.94;;;32.93;80.88
8075;BME280;4080;42.676;23.372;2023-07-16T16:22:15;95284.84;;;32.88;82.29
8075;BME280;4080;42.676;23.372;2023-07-16T16:24:42;95287.66;;;32.81;84.33
8075;BME280;4080;42.676;23.372;2023-07-16T16:27:08;95291.56;;;32.80;84.97
8075;BME280;4080;42.676;23.372;2023-07-16T16:29:35;95295.88;;;32.74;84.25
8075;BME280;4080;42.676;23.372;2023-07-16T16:32:04;95286.94;;;32.70;83.79
8075;BME280;4080;42.676;23.372;2023-07-16T16:34:31;95284.66;;;32.61;83.57
8075;BME280;4080;42.676;23.372;2023-07-16T16:36:57;95292.13;;;32.57;83.35
8075;BME280;4080;42.676;23.372;2023-07-16T16:39:24;95298.38;;;32.54;83.70
8075;BME280;4080;42.676;23.372;2023-07-16T16:41:51;95292.97;;;32.51;84.49
8075;BME280;4080;42.676;23.372;2023-07-16T16:44:17;95302.72;;;32.48;84.24
8075;BME280;4080;42.676;23.372;2023-07-16T16:46:44;95299.22;;;32.44;84.58
8075;BME280;4080;42.676;23.372;2023-07-16T16:49:12;95297.69;;;32.43;84.63
8075;BME280;4080;42.676;23.372;2023-07-16T16:51:39;95300.06;;;32.37;84.08
8075;BME280;4080;42.676;23.372;2023-07-16T16:54:06;95293.47;;;32.31;85.35
8075;BME280;4080;42.676;23.372;2023-07-16T16:56:32;95297.00;;;32.28;85.27
8075;BME280;4080;42.676;23.372;2023-07-16T16:58:59;95262.06;;;32.02;85.38
8075;BME280;4080;42.676;23.372;2023-07-16T17:01:26;95286.53;;;32.12;84.90
8075;BME280;4080;42.676;23.372;2023-07-16T17:03:52;95296.66;;;32.19;85.65
8075;BME280;4080;42.676;23.372;2023-07-16T17:06:23;95300.19;;;32.16;87.13
8075;BME280;4080;42.676;23.372;2023-07-16T17:08:49;95282.38;;;31.94;88.85
8075;BME280;4080;42.676;23.372;2023-07-16T17:11:17;95302.16;;;32.08;90.24
8075;BME280;4080;42.676;23.372;2023-07-16T17:13:43;95299.09;;;32.03;91.09
8075;BME280;4080;42.676;23.372;2023-07-16T17:16:10;95304.16;;;32.01;91.08
8075;BME280;4080;42.676;23.372;2023-07-16T17:18:37;95301.50;;;31.94;91.95
8075;BME280;4080;42.676;23.372;2023-07-16T17:21:03;95304.22;;;31.94;92.33
8075;BME280;4080;42.676;23.372;2023-07-16T17:23:31;95302.66;;;31.93;93.25
8075;BME280;4080;42.676;23.372;2023-07-16T17:25:59;95298.81;;;31.87;93.11
8075;BME280;4080;42.676;23.372;2023-07-16T17:28:26;95300.78;;;31.75;93.64
8075;BME280;4080;42.676;23.372;2023-07-16T17:30:53;95303.13;;;31.70;93.77
8075;BME280;4080;42.676;23.372;2023-07-16T17:33:24;95305.13;;;31.62;94.08
8075;BME280;4080;42.676;23.372;2023-07-16T17:35:51;95302.00;;;31.53;94.74
8075;BME280;4080;42.676;23.372;2023-07-16T17:38:18;95307.09;;;31.47;95.49
8075;BME280;4080;42.676;23.372;2023-07-16T17:40:46;95302.84;;;31.43;96.76
8075;BME280;4080;42.676;23.372;2023-07-16T17:43:12;95310.63;;;31.41;96.76
8075;BME280;4080;42.676;23.372;2023-07-16T17:45:39;95309.13;;;31.29;97.63
8075;BME280;4080;42.676;23.372;2023-07-16T17:48:06;95313.03;;;31.25;99.22
8075;BME280;4080;42.676;23.372;2023-07-16T17:50:33;95315.34;;;31.15;100.00
8075;BME280;4080;42.676;23.372;2023-07-16T17:53:01;95304.06;;;31.06;100.00
8075;BME280;4080;42.676;23.372;2023-07-16T17:55:28;95311.47;;;31.02;100.00
8075;BME280;4080;42.676;23.372;2023-07-16T17:57:56;95317.31;;;30.90;100.00
8075;BME280;4080;42.676;23.372;2023-07-16T18:00:22;95317.72;;;30.78;100.00
8075;BME280;4080;42.676;23.372;2023-07-16T18:02:49;95307.25;;;30.66;100.00
8075;BME280;4080;42.676;23.372;2023-07-16T18:05:16;95316.19;;;30.63;100.00
8075;BME280;4080;42.676;23.372;2023-07-16T18:07:43;95319.25;;;30.57;100.00
8075;BME280;4080;42.676;23.372;2023-07-16T18:10:10;95314.19;;;30.52;100.00
8075;BME280;4080;42.676;23.372;2023-07-16T18:12:37;95319.25;;;30.47;100.00
8075;BME280;4080;42.676;23.372;2023-07-16T18:15:06;95314.19;;;30.42;100.00
8075;BME280;4080;42.676;23.372;2023-07-16T18:17:33;95322.34;;;30.38;100.00
8075;BME280;4080;42.676;23.372;2023-07-16T18:19:59;95319.63;;;30.35;100.00
8075;BME280;4080;42.676;23.372;2023-07-16T18:22:26;95327.00;;;30.31;100.00
8075;BME280;4080;42.676;23.372;2023-07-16T18:24:53;95325.81;;;30.28;100.00
8075;BME280;4080;42.676;23.372;2023-07-16T18:27:20;95327.38;;;30.25;100.00
8075;BME280;4080;42.676;23.372;2023-07-16T18:29:47;95333.22;;;30.24;100.00
8075;BME280;4080;42.676;23.372;2023-07-16T18:32:15;95326.59;;;30.21;100.00
8075;BME280;4080;42.676;23.372;2023-07-16T18:34:41;95302.03;;;29.96;100.00
8075;BME280;4080;42.676;23.372;2023-07-16T18:37:08;95320.75;;;30.12;100.00
8075;BME280;4080;42.676;23.372;2023-07-16T18:39:35;95340.19;;;30.25;100.00
8075;BME280;4080;42.676;23.372;2023-07-16T18:42:02;95346.81;;;30.24;100.00
8075;BME280;4080;42.676;23.372;2023-07-16T18:44:28;95350.69;;;30.19;100.00
8075;BME280;4080;42.676;23.372;2023-07-16T18:46:55;95347.19;;;30.15;100.00
8075;BME280;4080;42.676;23.372;2023-07-16T18:49:23;95353.00;;;30.14;100.00
8075;BME280;4080;42.676;23.372;2023-07-16T18:51:50;95350.69;;;30.09;100.00
8075;BME280;4080;42.676;23.372;2023-07-16T18:54:17;95352.22;;;30.06;100.00
8075;BME280;4080;42.676;23.372;2023-07-16T18:56:43;95349.88;;;30.05;100.00
8075;BME280;4080;42.676;23.372;2023-07-16T18:59:10;95360.78;;;30.05;100.00
8075;BME280;4080;42.676;23.372;2023-07-16T19:01:38;95326.06;;;29.80;100.00
8075;BME280;4080;42.676;23.372;2023-07-16T19:04:04;95358.38;;;29.96;100.00
8075;BME280;4080;42.676;23.372;2023-07-16T19:06:33;95360.69;;;29.90;100.00
8075;BME280;4080;42.676;23.372;2023-07-16T19:09:00;95358.75;;;29.91;100.00
8075;BME280;4080;42.676;23.372;2023-07-16T19:11:27;95356.00;;;29.84;100.00
8075;BME280;4080;42.676;23.372;2023-07-16T19:13:54;95366.50;;;29.92;100.00
8075;BME280;4080;42.676;23.372;2023-07-16T19:16:22;95368.06;;;29.93;100.00
8075;BME280;4080;42.676;23.372;2023-07-16T19:18:49;95345.09;;;29.73;100.00
8075;BME280;4080;42.676;23.372;2023-07-16T19:21:15;95371.94;;;29.85;100.00
8075;BME280;4080;42.676;23.372;2023-07-16T19:23:43;95369.19;;;29.82;100.00
8075;BME280;4080;42.676;23.372;2023-07-16T19:26:10;95375.00;;;29.77;100.00
8075;BME280;4080;42.676;23.372;2023-07-16T19:28:37;95370.28;;;29.63;100.00
8075;BME280;4080;42.676;23.372;2023-07-16T19:31:04;95367.47;;;29.45;100.00
8075;BME280;4080;42.676;23.372;2023-07-16T19:33:31;95359.53;;;29.22;100.00
8075;BME280;4080;42.676;23.372;2023-07-16T19:35:58;95376.31;;;29.35;100.00
8075;BME280;4080;42.676;23.372;2023-07-16T19:38:25;95330.31;;;29.05;100.00
8075;BME280;4080;42.676;23.372;2023-07-16T19:40:54;95366.94;;;29.25;100.00
8075;BME280;4080;42.676;23.372;2023-07-16T19:43:21;95337.69;;;29.04;100.00
8075;BME280;4080;42.676;23.372;2023-07-16T19:45:47;95378.97;;;29.24;100.00
8075;BME280;4080;42.676;23.372;2023-07-16T19:48:14;95380.06;;;29.16;100.00
8075;BME280;4080;42.676;23.372;2023-07-16T19:50:41;95380.84;;;29.13;100.00
8075;BME280;4080;42.676;23.372;2023-07-16T19:53:13;95386.19;;;29.06;100.00
8075;BME280;4080;42.676;23.372;2023-07-16T19:55:41;95388.84;;;28.95;100.00
8075;BME280;4080;42.676;23.372;2023-07-16T19:58:09;95392.25;;;28.85;100.00
8075;BME280;4080;42.676;23.372;2023-07-16T20:00:35;95382.44;;;28.77;100.00
8075;BME280;4080;42.676;23.372;2023-07-16T20:03:02;95383.56;;;28.72;100.00
8075;BME280;4080;42.676;23.372;2023-07-16T20:05:35;95384.28;;;28.66;100.00
8075;BME280;4080;42.676;23.372;2023-07-16T20:08:02;95382.72;;;28.61;100.00
8075;BME280;4080;42.676;23.372;2023-07-16T20:10:30;95385.75;;;28.56;100.00
8075;BME280;4080;42.676;23.372;2023-07-16T20:12:56;95390.38;;;28.52;100.00
8075;BME280;4080;42.676;23.372;2023-07-16T20:15:25;95383.38;;;28.48;100.00
8075;BME280;4080;42.676;23.372;2023-07-16T20:17:51;95385.66;;;28.45;100.00
8075;BME280;4080;42.676;23.372;2023-07-16T20:20:18;95386.00;;;28.40;100.00
8075;BME280;4080;42.676;23.372;2023-07-16T20:22:45;95389.09;;;28.42;100.00
8075;BME280;4080;42.676;23.372;2023-07-16T20:25:12;95390.97;;;28.35;100.00
8075;BME280;4080;42.676;23.372;2023-07-16T20:27:44;95367.16;;;28.18;100.00
8075;BME280;4080;42.676;23.372;2023-07-16T20:30:11;95390.94;;;28.31;100.00
8075;BME280;4080;42.676;23.372;2023-07-16T20:32:39;95383.56;;;28.28;100.00
8075;BME280;4080;42.676;23.372;2023-07-16T20:35:09;95397.19;;;28.35;100.00
8075;BME280;4080;42.676;23.372;2023-07-16T20:37:36;95391.75;;;28.35;100.00
8075;BME280;4080;42.676;23.372;2023-07-16T20:40:04;95391.34;;;28.33;100.00
8075;BME280;4080;42.676;23.372;2023-07-16T20:42:36;95399.34;;;28.23;100.00
8075;BME280;4080;42.676;23.372;2023-07-16T20:45:14;95393.91;;;28.19;100.00
8075;BME280;4080;42.676;23.372;2023-07-16T20:47:43;95394.69;;;28.20;100.00
8075;BME280;4080;42.676;23.372;2023-07-16T20:50:10;95382.13;;;28.08;100.00
8075;BME280;4080;42.676;23.372;2023-07-16T20:52:37;95400.09;;;28.20;100.00
8075;BME280;4080;42.676;23.372;2023-07-16T20:55:07;95407.09;;;28.21;100.00
8075;BME280;4080;42.676;23.372;2023-07-16T20:57:33;95411.69;;;28.17;100.00
8075;BME280;4080;42.676;23.372;2023-07-16T21:00:00;95411.59;;;28.09;100.00
8075;BME280;4080;42.676;23.372;2023-07-16T21:02:28;95419.31;;;28.07;100.00
8075;BME280;4080;42.676;23.372;2023-07-16T21:04:56;95411.59;;;28.09;100.00
8075;BME280;4080;42.676;23.372;2023-07-16T21:07:22;95419.47;;;28.18;100.00
8075;BME280;4080;42.676;23.372;2023-07-16T21:09:49;95413.44;;;28.32;100.00
8075;BME280;4080;42.676;23.372;2023-07-16T21:12:16;95410.44;;;28.44;100.00
8075;BME280;4080;42.676;23.372;2023-07-16T21:14:42;95412.34;;;28.40;100.00
8075;BME280;4080;42.676;23.372;2023-07-16T21:17:09;95408.44;;;28.37;100.00
8075;BME280;4080;42.676;23.372;2023-07-16T21:19:36;95413.03;;;28.30;100.00
8075;BME280;4080;42.676;23.372;2023-07-16T21:22:04;95414.41;;;28.17;100.00
8075;BME280;4080;42.676;23.372;2023-07-16T21:24:32;95393.28;;;27.99;100.00
8075;BME280;4080;42.676;23.372;2023-07-16T21:26:59;95405.72;;;28.04;100.00
8075;BME280;4080;42.676;23.372;2023-07-16T21:29:25;95409.53;;;27.99;100.00
8075;BME280;4080;42.676;23.372;2023-07-16T21:31:52;95401.00;;;27.97;100.00
8075;BME280;4080;42.676;23.372;2023-07-16T21:34:19;95404.50;;;27.98;100.00
8075;BME280;4080;42.676;23.372;2023-07-16T21:36:46;95412.94;;;27.93;100.00
8075;BME280;4080;42.676;23.372;2023-07-16T21:39:14;95415.22;;;27.87;100.00
8075;BME280;4080;42.676;23.372;2023-07-16T21:41:40;95415.50;;;27.82;100.00
8075;BME280;4080;42.676;23.372;2023-07-16T21:44:07;95411.63;;;27.79;100.00
8075;BME280;4080;42.676;23.372;2023-07-16T21:46:34;95416.81;;;27.62;100.00
8075;BME280;4080;42.676;23.372;2023-07-16T21:49:00;95406.16;;;27.49;100.00
8075;BME280;4080;42.676;23.372;2023-07-16T21:51:27;95414.03;;;27.58;100.00
8075;BME280;4080;42.676;23.372;2023-07-16T21:53:54;95415.75;;;27.70;100.00
8075;BME280;4080;42.676;23.372;2023-07-16T21:56:22;95424.38;;;27.79;100.00
8075;BME280;4080;42.676;23.372;2023-07-16T21:58:49;95419.06;;;27.86;100.00
8075;BME280;4080;42.676;23.372;2023-07-16T22:01:15;95423.44;;;27.94;100.00
8075;BME280;4080;42.676;23.372;2023-07-16T22:03:43;95423.84;;;27.96;100.00
8075;BME280;4080;42.676;23.372;2023-07-16T22:06:10;95419.56;;;27.95;100.00
8075;BME280;4080;42.676;23.372;2023-07-16T22:08:36;95421.78;;;27.86;100.00
8075;BME280;4080;42.676;23.372;2023-07-16T22:11:03;95425.31;;;27.90;100.00
8075;BME280;4080;42.676;23.372;2023-07-16T22:13:31;95424.66;;;28.00;100.00
8075;BME280;4080;42.676;23.372;2023-07-16T22:15:59;95423.81;;;27.93;100.00
8075;BME280;4080;42.676;23.372;2023-07-16T22:18:25;95422.97;;;27.89;100.00
8075;BME280;4080;42.676;23.372;2023-07-16T22:20:52;95427.00;;;27.72;100.00
8075;BME280;4080;42.676;23.372;2023-07-16T22:23:19;95424.78;;;27.54;100.00
8075;BME280;4080;42.676;23.372;2023-07-16T22:25:45;95429.09;;;27.56;100.00
8075;BME280;4080;42.676;23.372;2023-07-16T22:28:12;95392.16;;;27.44;100.00
8075;BME280;4080;42.676;23.372;2023-07-16T22:30:40;95427.41;;;27.74;100.00
8075;BME280;4080;42.676;23.372;2023-07-16T22:33:07;95427.47;;;27.51;100.00
8075;BME280;4080;42.676;23.372;2023-07-16T22:35:33;95425.13;;;27.49;100.00
8075;BME280;4080;42.676;23.372;2023-07-16T22:38:00;95426.00;;;27.57;100.00
8075;BME280;4080;42.676;23.372;2023-07-16T22:40:27;95422.56;;;27.60;100.00
8075;BME280;4080;42.676;23.372;2023-07-16T22:42:54;95423.09;;;27.69;100.00
8075;BME280;4080;42.676;23.372;2023-07-16T22:45:21;95425.84;;;27.73;100.00
8075;BME280;4080;42.676;23.372;2023-07-16T22:47:49;95417.31;;;27.71;100.00
8075;BME280;4080;42.676;23.372;2023-07-16T22:50:16;95423.69;;;27.56;100.00
8075;BME280;4080;42.676;23.372;2023-07-16T22:52:43;95425.06;;;27.46;100.00
8075;BME280;4080;42.676;23.372;2023-07-16T22:55:10;95420.25;;;27.32;100.00
8075;BME280;4080;42.676;23.372;2023-07-16T22:57:37;95418.50;;;27.20;100.00
8075;BME280;4080;42.676;23.372;2023-07-16T23:00:04;95418.50;;;27.20;100.00
8075;BME280;4080;42.676;23.372;2023-07-16T23:02:33;95419.22;;;27.17;100.00
8075;BME280;4080;42.676;23.372;2023-07-16T23:05:01;95415.00;;;27.20;100.00
8075;BME280;4080;42.676;23.372;2023-07-16T23:07:28;95414.59;;;27.18;100.00
8075;BME280;4080;42.676;23.372;2023-07-16T23:09:56;95408.81;;;27.19;100.00
8075;BME280;4080;42.676;23.372;2023-07-16T23:12:23;95424.81;;;27.28;100.00
8075;BME280;4080;42.676;23.372;2023-07-16T23:14:49;95428.72;;;27.31;100.00
8075;BME280;4080;42.676;23.372;2023-07-16T23:17:16;95421.75;;;27.30;100.00
8075;BME280;4080;42.676;23.372;2023-07-16T23:19:43;95426.81;;;27.31;100.00
8075;BME280;4080;42.676;23.372;2023-07-16T23:22:11;95426.06;;;27.34;100.00